KDSV/DSV METAR and TAF weather

Enter ICAO airport designator
Station Type Date Time Source
KDSV METAR 2022/05/26 03:54 UTC NOAA

KDSV 260354Z AUTO 15009G20KT 10SM CLR 19/10 A3015 RMK AO2 SLP215 T01940100


Station Type Date Time Source
KDSV Decoded METAR 2022/05/26 03:54 UTC NOAA

DANSVILLE MUNICIPAL AIRPORT, NY, United States (KDSV) 42-34N 077-43W 198M
May 25, 2022 - 11:54 PM EDT / 2022.05.26 0354 UTC
Wind: from the SSE (150 degrees) at 10 MPH (9 KT) gusting to 23 MPH (20 KT):0
Visibility: 10 mile(s):0
Sky conditions: clear
Temperature: 66.9 F (19.4 C)
Dew Point: 50.0 F (10.0 C)
Relative Humidity: 54%
Pressure (altimeter): 30.15 in. Hg (1020 hPa)
ob: KDSV 260354Z AUTO 15009G20KT 10SM CLR 19/10 A3015 RMK AO2 SLP215 T01940100
cycle: 4

Station Type Date Time Source
KDSV TAF UTC NOAA

Error!

Example: see airport list